createdAt,value
2022-11-15T00:03:21.602Z,28.8
2022-11-15T00:08:55.558Z,28.7
2022-11-15T00:14:17.530Z,28.6
2022-11-15T00:19:40.807Z,28.5
2022-11-15T00:25:18.212Z,28.4
2022-11-15T00:30:41.931Z,28.3
2022-11-15T00:36:20.591Z,28.1
2022-11-15T00:42:00.411Z,27.9
2022-11-15T00:52:44.600Z,27.7
2022-11-15T00:58:21.898Z,27.5
2022-11-15T01:04:01.391Z,27.4
2022-11-15T01:09:24.041Z,27.3
2022-11-15T01:15:01.098Z,27.1
2022-11-15T01:20:38.576Z,27
2022-11-15T01:26:16.952Z,26.9
2022-11-15T01:31:54.465Z,26.7
2022-11-15T01:37:31.881Z,26.2
2022-11-15T01:43:09.145Z,25.8
2022-11-15T01:48:30.751Z,25.6
2022-11-15T01:54:08.872Z,25.3
2022-11-15T01:59:46.512Z,25
2022-11-15T02:05:08.769Z,24.8
2022-11-15T02:10:00.556Z,24.6
2022-11-15T02:15:37.139Z,24.3
2022-11-15T02:21:13.272Z,24.1
2022-11-15T02:26:20.145Z,25.1
2022-11-15T02:31:57.666Z,25.1
2022-11-15T02:37:34.113Z,24.8
2022-11-15T02:42:55.802Z,24.5
2022-11-15T02:48:33.267Z,24.3
2022-11-15T02:53:24.074Z,24.1
2022-11-15T02:59:00.907Z,24
2022-11-15T03:04:23.968Z,23.9
2022-11-15T03:10:01.188Z,23.6
2022-11-15T03:15:22.912Z,23.5
2022-11-15T03:20:29.086Z,23.4
2022-11-15T03:25:34.410Z,23.3
2022-11-15T03:30:55.897Z,23.1
2022-11-15T03:36:36.859Z,23
2022-11-15T03:42:04.186Z,22.9
2022-11-15T03:47:40.964Z,22.8
2022-11-15T03:53:18.159Z,22.6
2022-11-15T03:58:39.742Z,22.6
2022-11-15T04:03:47.647Z,22.4
2022-11-15T04:09:25.764Z,22.4
2022-11-15T04:14:15.596Z,22.3
2022-11-15T04:19:53.147Z,22.3
2022-11-15T04:25:37.115Z,22.2
2022-11-15T04:30:58.424Z,22.1
2022-11-15T04:36:36.734Z,21.9
2022-11-15T04:42:19.511Z,21.9
2022-11-15T04:47:55.545Z,21.9
2022-11-15T04:53:17.771Z,21.8
2022-11-15T04:58:40.433Z,21.8
2022-11-15T05:04:28.507Z,21.7
2022-11-15T05:09:51.497Z,21.6
2022-11-15T05:15:14.023Z,21.6
2022-11-15T05:20:52.680Z,21.4
2022-11-15T05:26:15.610Z,21.4
2022-11-15T05:31:53.119Z,21.4
2022-11-15T05:37:14.957Z,21.3
2022-11-15T05:42:36.937Z,21.3
2022-11-15T05:48:14.470Z,21.2
2022-11-15T06:04:25.608Z,21.1
2022-11-15T06:10:03.024Z,21.1
2022-11-15T06:15:41.153Z,21
2022-11-15T06:21:09.216Z,20.9
2022-11-15T06:26:45.972Z,20.9
2022-11-15T06:32:22.941Z,20.9
2022-11-15T06:37:45.414Z,20.9
2022-11-15T06:43:22.201Z,20.8
2022-11-15T06:48:59.559Z,20.8
2022-11-15T06:54:37.170Z,20.8
2022-11-15T07:00:14.614Z,20.8
2022-11-15T07:05:52.781Z,20.7
2022-11-15T07:11:30.085Z,20.7
2022-11-15T07:17:12.419Z,20.6
2022-11-15T07:22:35.065Z,20.6
2022-11-15T07:27:59.136Z,20.6
2022-11-15T07:33:20.966Z,20.6
2022-11-15T07:38:59.775Z,20.5
2022-11-15T07:44:36.796Z,20.5
2022-11-15T07:50:08.809Z,20.5
2022-11-15T07:55:31.902Z,20.4
2022-11-15T08:01:10.113Z,20.4
2022-11-15T08:06:48.948Z,20.4
2022-11-15T08:12:27.016Z,20.4
2022-11-15T08:18:10.373Z,20.4
2022-11-15T08:23:48.558Z,20.3
2022-11-15T08:29:26.960Z,20.3
2022-11-15T08:35:04.782Z,20.3
2022-11-15T08:40:57.275Z,20.3
2022-11-15T08:46:36.195Z,20.3
2022-11-15T08:52:14.417Z,20.3
2022-11-15T08:57:54.088Z,20.3
2022-11-15T09:03:32.750Z,20.3
2022-11-15T09:09:39.826Z,20.2
2022-11-15T09:15:22.128Z,20.2
2022-11-15T09:21:08.472Z,20.2
2022-11-15T09:26:50.145Z,20.2
2022-11-15T09:33:01.987Z,20.1
2022-11-15T09:38:47.288Z,20.1
2022-11-15T09:44:25.800Z,20.1
2022-11-15T09:50:02.794Z,20.1
2022-11-15T09:56:48.405Z,20.1
2022-11-15T10:02:42.871Z,20.1
2022-11-15T10:08:10.425Z,20.1
2022-11-15T10:14:27.775Z,20.1
2022-11-15T10:20:06.397Z,20.1
2022-11-15T10:25:28.672Z,20.1
2022-11-15T10:31:14.350Z,20.1
2022-11-15T10:36:51.321Z,20
2022-11-15T10:44:09.390Z,20
2022-11-15T10:50:26.282Z,20
2022-11-15T10:56:08.642Z,20
2022-11-15T11:01:51.555Z,20
2022-11-15T11:07:36.540Z,19.9
2022-11-15T11:13:49.534Z,19.9
2022-11-15T11:19:27.189Z,19.9
2022-11-15T11:24:55.230Z,19.9
2022-11-15T11:30:33.589Z,19.9
2022-11-15T11:36:14.611Z,19.9
2022-11-15T11:41:37.665Z,19.9
2022-11-15T11:47:15.094Z,19.9
2022-11-15T11:52:53.797Z,19.9
2022-11-15T11:58:32.393Z,19.9
2022-11-15T12:04:16.486Z,19.9
2022-11-15T12:09:59.118Z,19.9
2022-11-15T12:15:37.602Z,19.9
2022-11-15T12:21:16.064Z,19.9
2022-11-15T12:26:52.163Z,19.9
2022-11-15T12:32:44.027Z,19.9
2022-11-15T12:38:21.581Z,19.9
2022-11-15T12:43:31.215Z,19.8
2022-11-15T12:48:38.296Z,19.8
2022-11-15T12:54:00.464Z,19.8
2022-11-15T12:59:38.572Z,19.8
2022-11-15T13:05:16.639Z,19.8
2022-11-15T13:10:57.907Z,19.8
2022-11-15T13:16:35.010Z,19.8
2022-11-15T13:22:13.296Z,19.8
2022-11-15T13:27:35.432Z,19.8
2022-11-15T13:32:56.286Z,19.8
2022-11-15T13:39:08.542Z,19.8
2022-11-15T13:44:46.214Z,19.8
2022-11-15T13:50:28.910Z,19.8
2022-11-15T13:56:07.540Z,19.7
2022-11-15T14:01:45.536Z,19.7
2022-11-15T14:07:22.269Z,19.7
2022-11-15T14:13:06.790Z,19.6
2022-11-15T14:18:29.166Z,19.7
2022-11-15T14:23:51.034Z,19.6
2022-11-15T14:29:16.948Z,19.6
2022-11-15T14:34:38.191Z,19.6
2022-11-15T14:40:15.758Z,19.6
2022-11-15T14:45:23.109Z,19.8
2022-11-15T14:50:45.665Z,20.8
2022-11-15T14:56:13.888Z,21.8
2022-11-15T15:01:42.111Z,22.5
2022-11-15T15:07:08.979Z,23.2
2022-11-15T15:12:56.669Z,23.8
2022-11-15T15:18:18.884Z,24.4
2022-11-15T15:23:50.687Z,24.8
2022-11-15T15:28:57.930Z,25.1
2022-11-15T15:34:20.618Z,25.5
2022-11-15T15:39:42.894Z,25.9
2022-11-15T15:45:07.167Z,26.3
2022-11-15T15:50:30.320Z,26.4
2022-11-15T15:56:00.365Z,26.5
2022-11-15T16:00:39.191Z,26.9
2022-11-15T16:06:01.924Z,27.2
2022-11-15T16:11:38.588Z,27.6
2022-11-15T16:17:01.006Z,27.9
2022-11-15T16:22:23.994Z,28.1
2022-11-15T16:27:46.404Z,28.4
2022-11-15T16:33:11.086Z,28.6
2022-11-15T16:38:44.416Z,28.9
2022-11-15T16:43:51.394Z,29.1
2022-11-15T16:49:17.590Z,29.4
2022-11-15T16:54:40.172Z,29.5
2022-11-15T17:00:02.269Z,29.7
2022-11-15T17:05:11.904Z,29.9
2022-11-15T17:10:21.212Z,30
2022-11-15T17:15:43.143Z,30.1
2022-11-15T17:21:04.919Z,30.3
2022-11-15T17:26:47.678Z,30.4
2022-11-15T17:31:39.244Z,30.6
2022-11-15T17:37:01.359Z,30.7
2022-11-15T17:42:39.181Z,30.8
2022-11-15T17:48:02.066Z,30.9
2022-11-15T17:53:29.790Z,31
2022-11-15T17:59:13.026Z,31.2
2022-11-15T18:04:37.844Z,31.3
2022-11-15T18:10:17.072Z,31.5
2022-11-15T18:15:39.407Z,31.6
2022-11-15T18:21:21.762Z,31.6
2022-11-15T18:27:01.087Z,31.7
2022-11-15T18:32:23.812Z,31.8
2022-11-15T18:37:47.137Z,31.8
2022-11-15T18:43:30.082Z,31.9
2022-11-15T18:48:53.179Z,31.9
2022-11-15T18:54:15.676Z,31.9
2022-11-15T18:59:53.494Z,32
2022-11-15T19:05:35.982Z,32.1
2022-11-15T19:11:18.887Z,32.1
2022-11-15T19:16:55.837Z,32.3
2022-11-15T19:22:38.354Z,32.3
2022-11-15T19:28:15.851Z,32.4
2022-11-15T19:33:58.807Z,32.4
2022-11-15T19:39:39.915Z,32.4
2022-11-15T19:45:03.800Z,32.6
2022-11-15T19:50:48.329Z,32.7
2022-11-15T19:56:13.854Z,32.6
2022-11-15T20:01:51.632Z,32.7
2022-11-15T20:07:15.813Z,32.8
2022-11-15T20:12:38.337Z,32.9
2022-11-15T20:18:18.203Z,32.9
2022-11-15T20:23:57.026Z,32.9
2022-11-15T20:29:35.043Z,32.6
2022-11-15T20:35:12.825Z,32.4
2022-11-15T20:40:35.323Z,32.2
2022-11-15T20:46:18.627Z,32
2022-11-15T20:52:31.753Z,31.9
2022-11-15T20:57:54.569Z,31.8
2022-11-15T21:03:18.567Z,31.6
2022-11-15T21:09:02.304Z,31.4
2022-11-15T21:14:26.217Z,31.2
2022-11-15T21:20:09.809Z,30.9
2022-11-15T21:25:32.552Z,30.7
2022-11-15T21:31:10.723Z,30.4
2022-11-15T21:36:38.625Z,30.2
2022-11-15T21:42:17.364Z,30
2022-11-15T21:47:59.822Z,29.8
2022-11-15T21:53:22.782Z,29.4
2022-11-15T21:58:14.027Z,28.6
2022-11-15T22:03:37.453Z,28.1
2022-11-15T22:09:20.511Z,28.1
2022-11-15T22:14:44.022Z,27.9
2022-11-15T22:20:29.802Z,27.9
2022-11-15T22:25:59.530Z,27.5
2022-11-15T22:30:55.627Z,27.4
2022-11-15T22:36:47.198Z,27.1
2022-11-15T22:42:41.790Z,27.1
2022-11-15T22:48:18.620Z,26.8
2022-11-15T22:53:57.456Z,26.8
2022-11-15T22:59:25.337Z,26.6
2022-11-15T23:04:51.156Z,26.4
2022-11-15T23:10:28.926Z,26.4
2022-11-15T23:16:07.558Z,26.9
2022-11-15T23:22:08.825Z,27
2022-11-15T23:27:46.695Z,26.7
2022-11-15T23:33:26.174Z,26.3
2022-11-15T23:39:09.239Z,25.9
2022-11-15T23:44:53.032Z,25.9
2022-11-15T23:50:31.418Z,25.7
2022-11-15T23:56:07.833Z,25.5
